createdAt,value
2019-02-14T00:00:45.057Z,2.70
2019-02-14T00:03:14.197Z,2.70
2019-02-14T00:05:44.060Z,2.60
2019-02-14T00:08:13.423Z,2.60
2019-02-14T00:10:43.489Z,2.60
2019-02-14T00:13:14.136Z,2.60
2019-02-14T00:15:43.846Z,2.60
2019-02-14T00:18:14.475Z,2.60
2019-02-14T00:20:44.067Z,2.50
2019-02-14T00:23:14.349Z,2.50
2019-02-14T00:25:43.998Z,2.50
2019-02-14T00:28:13.641Z,2.50
2019-02-14T00:30:43.304Z,2.50
2019-02-14T00:33:13.351Z,2.50
2019-02-14T00:35:42.499Z,2.50
2019-02-14T00:38:12.063Z,2.50
2019-02-14T00:40:41.548Z,2.50
2019-02-14T00:43:10.829Z,2.50
2019-02-14T00:45:41.003Z,2.50
2019-02-14T00:48:11.129Z,2.50
2019-02-14T00:50:41.498Z,2.50
2019-02-14T00:53:11.494Z,2.50
2019-02-14T00:55:42.326Z,2.50
2019-02-14T00:58:12.686Z,2.50
2019-02-14T01:00:42.806Z,2.50
2019-02-14T01:03:12.453Z,2.40
2019-02-14T01:05:42.401Z,2.40
2019-02-14T01:08:13.460Z,2.40
2019-02-14T01:10:44.368Z,2.40
2019-02-14T01:13:15.621Z,2.40
2019-02-14T01:15:46.247Z,2.40
2019-02-14T01:18:16.440Z,2.40
2019-02-14T01:20:47.872Z,2.40
2019-02-14T01:23:18.069Z,2.30
2019-02-14T01:25:48.562Z,2.20
2019-02-14T01:28:18.540Z,2.20
2019-02-14T01:30:49.855Z,2.20
2019-02-14T01:33:20.441Z,2.30
2019-02-14T01:35:51.332Z,2.30
2019-02-14T01:38:21.771Z,2.30
2019-02-14T01:40:52.325Z,2.30
2019-02-14T01:43:22.824Z,2.30
2019-02-14T01:45:53.168Z,2.30
2019-02-14T01:48:24.443Z,2.30
2019-02-14T01:50:55.466Z,2.30
2019-02-14T01:53:26.202Z,2.30
2019-02-14T01:55:57.069Z,2.30
2019-02-14T01:58:27.349Z,2.30
2019-02-14T02:00:58.658Z,2.30
2019-02-14T02:03:29.626Z,2.30
2019-02-14T02:05:59.727Z,2.30
2019-02-14T02:08:30.187Z,2.30
2019-02-14T02:11:00.988Z,2.30
2019-02-14T02:13:31.403Z,2.30
2019-02-14T02:16:01.841Z,2.30
2019-02-14T02:18:32.528Z,2.30
2019-02-14T02:21:04.835Z,2.30
2019-02-14T02:23:34.775Z,2.30
2019-02-14T02:26:06.064Z,2.30
2019-02-14T02:28:36.140Z,2.30
2019-02-14T02:31:06.750Z,2.20
2019-02-14T02:33:38.364Z,2.20
2019-02-14T02:36:08.476Z,2.20
2019-02-14T02:38:38.713Z,2.20
2019-02-14T02:41:10.194Z,2.20
2019-02-14T02:43:40.504Z,2.20
2019-02-14T02:46:11.487Z,2.20
2019-02-14T02:48:41.763Z,2.20
2019-02-14T02:51:12.336Z,2.20
2019-02-14T02:53:42.664Z,2.20
2019-02-14T02:56:13.376Z,2.20
2019-02-14T02:58:43.637Z,2.20
2019-02-14T03:01:14.664Z,2.20
2019-02-14T03:03:45.489Z,2.20
2019-02-14T03:06:16.101Z,2.20
2019-02-14T03:08:46.185Z,2.20
2019-02-14T03:11:17.042Z,2.20
2019-02-14T03:13:48.209Z,2.20
2019-02-14T03:16:18.758Z,2.20
2019-02-14T03:18:51.198Z,2.20
2019-02-14T03:21:20.925Z,2.20
2019-02-14T03:23:51.299Z,2.20
2019-02-14T03:26:22.652Z,2.20
2019-02-14T03:28:52.751Z,2.20
2019-02-14T03:31:22.976Z,2.10
2019-02-14T03:33:54.035Z,2.20
2019-02-14T03:36:25.042Z,2.10
2019-02-14T03:38:55.361Z,2.10
2019-02-14T03:41:26.327Z,2.10
2019-02-14T03:43:56.713Z,2.10
2019-02-14T03:46:27.288Z,2.10
2019-02-14T03:48:57.621Z,2.10
2019-02-14T03:51:27.993Z,2.10
2019-02-14T03:53:59.051Z,2.10
2019-02-14T03:56:29.415Z,2.10
2019-02-14T03:59:00.083Z,2.10
2019-02-14T04:01:31.455Z,2.10
2019-02-14T04:04:02.665Z,2.10
2019-02-14T04:06:32.777Z,2.10
2019-02-14T04:09:02.986Z,2.00
2019-02-14T04:11:33.148Z,2.00
2019-02-14T04:14:03.584Z,2.00
2019-02-14T04:16:33.780Z,2.00
2019-02-14T04:19:04.484Z,1.90
2019-02-14T04:21:35.656Z,1.90
2019-02-14T04:24:06.262Z,1.90
2019-02-14T04:26:36.819Z,1.90
2019-02-14T04:29:06.394Z,1.90
2019-02-14T04:31:36.438Z,1.90
2019-02-14T04:34:05.870Z,1.90
2019-02-14T04:36:37.318Z,1.90
2019-02-14T04:39:07.270Z,1.80
2019-02-14T04:41:37.282Z,1.80
2019-02-14T04:44:06.770Z,1.80
2019-02-14T04:46:36.037Z,1.80
2019-02-14T04:49:04.956Z,1.80
2019-02-14T04:51:34.092Z,1.80
2019-02-14T04:54:04.534Z,1.80
2019-02-14T04:56:34.214Z,1.80
2019-02-14T04:59:03.639Z,1.80
2019-02-14T05:01:33.182Z,1.80
2019-02-14T05:04:02.648Z,1.70
2019-02-14T05:06:31.626Z,1.70
2019-02-14T05:09:01.305Z,1.70
2019-02-14T05:11:30.420Z,1.70
2019-02-14T05:13:59.584Z,1.70
2019-02-14T05:16:28.958Z,1.70
2019-02-14T05:18:58.363Z,1.70
2019-02-14T05:21:27.294Z,1.70
2019-02-14T05:23:56.781Z,1.60
2019-02-14T05:26:26.093Z,1.60
2019-02-14T05:28:55.360Z,1.60
2019-02-14T05:31:25.359Z,1.60
2019-02-14T05:33:55.436Z,1.60
2019-02-14T05:36:25.075Z,1.60
2019-02-14T05:38:54.145Z,1.60
2019-02-14T05:41:23.465Z,1.60
2019-02-14T05:43:52.717Z,1.60
2019-02-14T05:46:22.857Z,1.50
2019-02-14T05:48:51.954Z,1.50
2019-02-14T05:51:21.626Z,1.50
2019-02-14T05:53:51.496Z,1.50
2019-02-14T05:56:20.970Z,1.50
2019-02-14T05:58:49.951Z,1.50
2019-02-14T06:01:19.911Z,1.50
2019-02-14T06:03:49.152Z,1.40
2019-02-14T06:06:18.640Z,1.40
2019-02-14T06:08:48.217Z,1.40
2019-02-14T06:11:18.151Z,1.40
2019-02-14T06:13:47.697Z,1.40
2019-02-14T06:16:17.111Z,1.40
2019-02-14T06:18:46.502Z,1.40
2019-02-14T06:21:16.686Z,1.40
2019-02-14T06:23:46.510Z,1.40
2019-02-14T06:26:15.857Z,1.40
2019-02-14T06:28:45.642Z,1.40
2019-02-14T06:31:15.539Z,1.30
2019-02-14T06:33:46.031Z,1.30
2019-02-14T06:36:15.768Z,1.30
2019-02-14T06:38:45.078Z,1.30
2019-02-14T06:41:16.239Z,1.30
2019-02-14T06:43:45.655Z,1.30
2019-02-14T06:46:15.310Z,1.30
2019-02-14T06:48:45.062Z,1.30
2019-02-14T06:51:13.867Z,1.30
2019-02-14T06:53:43.524Z,1.30
2019-02-14T06:56:12.769Z,1.30
2019-02-14T06:58:42.122Z,1.30
2019-02-14T07:01:12.057Z,1.30
2019-02-14T07:03:41.498Z,1.30
2019-02-14T07:06:11.060Z,1.20
2019-02-14T07:08:41.012Z,1.20
2019-02-14T07:11:11.001Z,1.20
2019-02-14T07:13:40.051Z,1.10
2019-02-14T07:16:09.712Z,1.10
2019-02-14T07:18:40.461Z,1.20
2019-02-14T07:21:10.123Z,1.20
2019-02-14T07:23:39.700Z,1.10
2019-02-14T07:26:09.526Z,1.20
2019-02-14T07:28:39.231Z,1.20
2019-02-14T07:31:08.286Z,1.20
2019-02-14T07:33:38.377Z,1.20
2019-02-14T07:36:07.996Z,1.30
2019-02-14T07:38:38.070Z,1.30
2019-02-14T07:41:08.864Z,1.30
2019-02-14T07:43:39.743Z,1.30
2019-02-14T07:46:09.073Z,1.40
2019-02-14T07:48:38.968Z,1.40
2019-02-14T07:51:08.544Z,1.40
2019-02-14T07:53:38.246Z,1.40
2019-02-14T07:56:08.386Z,1.40
2019-02-14T07:58:37.527Z,1.40
2019-02-14T08:01:06.749Z,1.40
2019-02-14T08:03:37.478Z,1.50
2019-02-14T08:06:07.053Z,1.50
2019-02-14T08:08:36.530Z,1.40
2019-02-14T08:11:07.159Z,1.50
2019-02-14T08:13:36.553Z,1.50
2019-02-14T08:16:06.179Z,1.50
2019-02-14T08:18:35.646Z,1.60
2019-02-14T08:21:05.493Z,1.60
2019-02-14T08:23:35.535Z,1.70
2019-02-14T08:26:10.655Z,1.70
2019-02-14T08:28:35.758Z,1.80
2019-02-14T08:31:05.774Z,1.80
2019-02-14T08:33:34.978Z,1.90
2019-02-14T08:36:04.730Z,2.00
2019-02-14T08:38:34.911Z,2.00
2019-02-14T08:41:04.808Z,2.10
2019-02-14T08:43:33.991Z,2.20
2019-02-14T08:46:03.667Z,2.30
2019-02-14T08:48:33.167Z,2.40
2019-02-14T08:51:02.869Z,2.50
2019-02-14T08:53:32.483Z,2.60
2019-02-14T08:56:02.760Z,2.70
2019-02-14T08:58:31.928Z,2.80
2019-02-14T09:01:01.557Z,2.90
2019-02-14T09:03:31.279Z,3.00
2019-02-14T09:06:00.773Z,3.20
2019-02-14T09:08:29.892Z,3.30
2019-02-14T09:10:59.526Z,3.40
2019-02-14T09:13:29.575Z,3.40
2019-02-14T09:15:59.189Z,3.50
2019-02-14T09:18:29.206Z,3.60
2019-02-14T09:20:58.600Z,3.70
2019-02-14T09:23:27.763Z,3.70
2019-02-14T09:25:56.992Z,3.80
2019-02-14T09:28:26.166Z,3.90
2019-02-14T09:30:56.100Z,4.00
2019-02-14T09:33:26.267Z,4.10
2019-02-14T09:35:56.264Z,4.10
2019-02-14T09:38:25.832Z,4.20
2019-02-14T09:40:55.608Z,4.30
2019-02-14T09:43:29.872Z,4.50
2019-02-14T09:45:56.302Z,4.60
2019-02-14T09:48:26.184Z,4.80
2019-02-14T09:50:55.127Z,4.90
2019-02-14T09:53:24.315Z,5.10
2019-02-14T09:55:53.781Z,5.20
2019-02-14T09:58:22.926Z,5.30
2019-02-14T10:00:52.259Z,5.50
2019-02-14T10:03:21.585Z,5.70
2019-02-14T10:05:50.974Z,5.90
2019-02-14T10:08:21.622Z,6.10
2019-02-14T10:10:52.012Z,6.30
2019-02-14T10:13:21.544Z,6.60
2019-02-14T10:15:50.604Z,6.80
2019-02-14T10:18:20.106Z,7.00
2019-02-14T10:20:49.888Z,7.20
2019-02-14T10:23:19.147Z,7.40
2019-02-14T10:25:48.866Z,7.70
2019-02-14T10:28:18.125Z,7.80
2019-02-14T10:30:47.833Z,7.90
2019-02-14T10:33:17.702Z,8.00
2019-02-14T10:35:46.977Z,8.10
2019-02-14T10:38:22.354Z,8.20
2019-02-14T10:40:47.814Z,8.30
2019-02-14T10:43:16.813Z,8.40
2019-02-14T10:45:46.649Z,8.40
2019-02-14T10:48:16.206Z,8.40
2019-02-14T10:50:45.452Z,8.40
2019-02-14T10:53:14.603Z,8.50
2019-02-14T10:55:44.159Z,8.50
2019-02-14T10:58:13.320Z,8.60
2019-02-14T11:00:45.166Z,8.60
2019-02-14T11:03:15.252Z,8.70
2019-02-14T11:05:45.941Z,8.70
2019-02-14T11:08:15.720Z,8.70
2019-02-14T11:10:45.411Z,8.70
2019-02-14T11:13:15.367Z,8.70
2019-02-14T11:15:44.675Z,8.70
2019-02-14T11:18:14.622Z,8.70
2019-02-14T11:20:44.162Z,8.70
2019-02-14T11:23:13.912Z,8.70
2019-02-14T11:25:43.558Z,8.70
2019-02-14T11:28:13.359Z,8.70
2019-02-14T11:30:43.865Z,8.80
2019-02-14T11:33:14.088Z,8.80
2019-02-14T11:35:43.175Z,8.80
2019-02-14T11:38:13.362Z,8.90
2019-02-14T11:40:42.539Z,8.90
2019-02-14T11:43:11.543Z,8.90
2019-02-14T11:45:41.003Z,8.90
2019-02-14T11:48:10.972Z,8.90
2019-02-14T11:50:39.927Z,8.90
2019-02-14T11:53:14.079Z,8.90
2019-02-14T11:55:39.751Z,8.90
2019-02-14T11:58:08.894Z,9.00
2019-02-14T12:00:37.791Z,9.10
2019-02-14T12:03:08.570Z,9.20
2019-02-14T12:05:37.734Z,9.30
2019-02-14T12:08:09.360Z,9.40
2019-02-14T12:10:39.147Z,9.40
2019-02-14T12:13:08.524Z,9.50
2019-02-14T12:15:38.099Z,9.60
2019-02-14T12:18:08.508Z,9.70
2019-02-14T12:20:37.547Z,9.80
2019-02-14T12:23:06.779Z,9.90
2019-02-14T12:25:37.199Z,10.10
2019-02-14T12:28:06.600Z,10.30
2019-02-14T12:30:36.548Z,10.50
2019-02-14T12:33:07.284Z,10.70
2019-02-14T12:35:37.179Z,10.90
2019-02-14T12:38:07.164Z,11.00
2019-02-14T12:40:37.155Z,11.00
2019-02-14T12:43:06.606Z,11.10
2019-02-14T12:45:36.492Z,11.10
2019-02-14T12:48:06.799Z,11.00
2019-02-14T12:50:36.463Z,11.00
2019-02-14T12:53:05.535Z,11.10
2019-02-14T12:55:35.294Z,11.10
2019-02-14T12:58:05.079Z,11.20
2019-02-14T13:00:35.757Z,11.20
2019-02-14T13:03:05.161Z,11.30
2019-02-14T13:05:34.819Z,11.40
2019-02-14T13:08:04.011Z,11.50
2019-02-14T13:10:33.208Z,11.50
2019-02-14T13:13:02.634Z,11.50
2019-02-14T13:15:32.149Z,11.60
2019-02-14T13:18:01.879Z,11.70
2019-02-14T13:20:31.529Z,11.90
2019-02-14T13:23:00.757Z,12.10
2019-02-14T13:25:30.375Z,12.10
2019-02-14T13:28:00.126Z,12.20
2019-02-14T13:30:29.370Z,12.30
2019-02-14T13:32:58.613Z,12.30
2019-02-14T13:35:28.950Z,12.30
2019-02-14T13:37:58.601Z,12.30
2019-02-14T13:40:27.478Z,12.30
2019-02-14T13:42:57.534Z,12.30
2019-02-14T13:45:27.250Z,12.20
2019-02-14T13:47:57.842Z,12.20
2019-02-14T13:50:27.465Z,12.10
2019-02-14T13:52:57.341Z,12.10
2019-02-14T13:55:28.270Z,12.10
2019-02-14T13:57:58.882Z,12.00
2019-02-14T14:00:33.299Z,12.00
2019-02-14T14:03:04.394Z,11.90
2019-02-14T14:05:33.730Z,11.80
2019-02-14T14:08:03.528Z,11.70
2019-02-14T14:10:33.315Z,11.70
2019-02-14T14:13:02.833Z,11.60
2019-02-14T14:15:32.377Z,11.50
2019-02-14T14:18:02.464Z,11.40
2019-02-14T14:20:32.306Z,11.30
2019-02-14T14:23:02.042Z,11.20
2019-02-14T14:25:31.245Z,11.10
2019-02-14T14:28:01.785Z,11.10
2019-02-14T14:30:31.624Z,11.00
2019-02-14T14:33:01.834Z,11.00
2019-02-14T14:35:31.390Z,11.00
2019-02-14T14:38:00.883Z,11.00
2019-02-14T14:40:30.329Z,11.00
2019-02-14T14:43:07.940Z,11.00
2019-02-14T14:45:39.509Z,11.00
2019-02-14T14:48:19.294Z,11.10
2019-02-14T14:50:42.109Z,11.10
2019-02-14T14:53:13.168Z,11.20
2019-02-14T14:55:42.892Z,11.30
2019-02-14T14:58:12.357Z,11.40
2019-02-14T15:00:41.884Z,11.50
2019-02-14T15:03:11.846Z,11.60
2019-02-14T15:05:41.332Z,11.70
2019-02-14T15:08:11.201Z,11.80
2019-02-14T15:10:40.676Z,11.90
2019-02-14T15:13:11.368Z,12.00
2019-02-14T15:15:41.675Z,12.10
2019-02-14T15:18:11.606Z,12.10
2019-02-14T15:20:40.693Z,12.20
2019-02-14T15:23:10.704Z,12.20
2019-02-14T15:25:40.528Z,12.20
2019-02-14T15:28:09.677Z,12.20
2019-02-14T15:30:39.437Z,12.10
2019-02-14T15:33:08.785Z,12.10
2019-02-14T15:35:39.416Z,12.00
2019-02-14T15:38:09.749Z,12.00
2019-02-14T15:40:40.113Z,11.90
2019-02-14T15:43:10.041Z,11.80
2019-02-14T15:45:39.814Z,11.70
2019-02-14T15:48:10.115Z,11.60
2019-02-14T15:50:40.290Z,11.50
2019-02-14T15:53:10.194Z,11.40
2019-02-14T15:55:41.639Z,11.30
2019-02-14T15:58:11.475Z,11.20
2019-02-14T16:00:41.164Z,11.10
2019-02-14T16:03:10.600Z,11.00
2019-02-14T16:05:40.278Z,10.90
2019-02-14T16:08:11.018Z,10.80
2019-02-14T16:10:40.244Z,10.60
2019-02-14T16:13:09.906Z,10.60
2019-02-14T16:15:39.055Z,10.40
2019-02-14T16:18:08.563Z,10.40
2019-02-14T16:20:40.385Z,10.30
2019-02-14T16:23:10.035Z,10.20
2019-02-14T16:25:38.786Z,10.10
2019-02-14T16:28:10.996Z,10.00
2019-02-14T16:30:39.381Z,9.90
2019-02-14T16:33:09.025Z,9.80
2019-02-14T16:35:38.744Z,9.70
2019-02-14T16:38:10.156Z,9.60
2019-02-14T16:40:39.260Z,9.60
2019-02-14T16:43:08.434Z,9.50
2019-02-14T16:45:37.489Z,9.40
2019-02-14T16:48:06.980Z,9.30
2019-02-14T16:50:36.245Z,9.20
2019-02-14T16:53:05.445Z,9.20
2019-02-14T16:55:35.308Z,9.10
2019-02-14T16:58:04.789Z,9.00
2019-02-14T17:00:34.558Z,8.90
2019-02-14T17:03:04.363Z,8.90
2019-02-14T17:05:33.666Z,8.80
2019-02-14T17:08:03.045Z,8.70
2019-02-14T17:10:36.884Z,8.60
2019-02-14T17:13:03.030Z,8.60
2019-02-14T17:15:32.940Z,8.50
2019-02-14T17:18:02.698Z,8.40
2019-02-14T17:20:32.243Z,8.40
2019-02-14T17:23:01.847Z,8.30
2019-02-14T17:25:31.531Z,8.20
2019-02-14T17:28:01.575Z,8.10
2019-02-14T17:30:30.743Z,8.10
2019-02-14T17:33:00.782Z,8.00
2019-02-14T17:35:30.729Z,7.90
2019-02-14T17:37:59.639Z,7.80
2019-02-14T17:40:29.098Z,7.70
2019-02-14T17:42:58.266Z,7.60
2019-02-14T17:45:27.226Z,7.50
2019-02-14T17:47:57.674Z,7.40
2019-02-14T17:50:27.049Z,7.30
2019-02-14T17:52:56.780Z,7.30
2019-02-14T17:55:26.120Z,7.20
2019-02-14T17:57:55.019Z,7.20
2019-02-14T18:00:24.959Z,7.20
2019-02-14T18:02:54.282Z,7.10
2019-02-14T18:05:23.834Z,7.00
2019-02-14T18:07:52.711Z,6.90
2019-02-14T18:10:22.088Z,6.90
2019-02-14T18:12:52.265Z,6.90
2019-02-14T18:15:21.500Z,6.80
2019-02-14T18:17:51.837Z,6.80
2019-02-14T18:20:21.278Z,6.70
2019-02-14T18:22:51.778Z,6.70
2019-02-14T18:25:20.707Z,6.60
2019-02-14T18:27:50.337Z,6.60
2019-02-14T18:30:19.702Z,6.50
2019-02-14T18:32:49.025Z,6.50
2019-02-14T18:35:18.840Z,6.40
2019-02-14T18:37:48.537Z,6.40
2019-02-14T18:40:18.678Z,6.30
2019-02-14T18:42:48.525Z,6.30
2019-02-14T18:45:18.058Z,6.20
2019-02-14T18:47:47.307Z,6.20
2019-02-14T18:50:16.994Z,6.10
2019-02-14T18:52:46.471Z,6.10
2019-02-14T18:55:15.827Z,6.00
2019-02-14T18:57:45.609Z,6.00
2019-02-14T19:00:17.663Z,5.90
2019-02-14T19:02:47.083Z,5.80
2019-02-14T19:05:16.373Z,5.80
2019-02-14T19:07:46.318Z,5.70
2019-02-14T19:10:17.881Z,5.70
2019-02-14T19:12:48.055Z,5.70
2019-02-14T19:15:17.487Z,5.60
2019-02-14T19:17:46.679Z,5.60
2019-02-14T19:20:16.821Z,5.60
2019-02-14T19:22:46.255Z,5.50
2019-02-14T19:25:16.639Z,5.50
2019-02-14T19:27:45.855Z,5.50
2019-02-14T19:30:15.917Z,5.40
2019-02-14T19:32:44.908Z,5.40
2019-02-14T19:35:22.470Z,5.40
2019-02-14T19:37:46.332Z,5.30
2019-02-14T19:40:16.146Z,5.30
2019-02-14T19:42:45.768Z,5.20
2019-02-14T19:45:15.193Z,5.20
2019-02-14T19:47:44.344Z,5.10
2019-02-14T19:50:14.355Z,5.10
2019-02-14T19:52:43.648Z,5.10
2019-02-14T19:55:13.057Z,5.00
2019-02-14T19:57:42.788Z,5.00
2019-02-14T20:00:14.090Z,4.90
2019-02-14T20:02:43.414Z,4.90
2019-02-14T20:05:14.123Z,4.90
2019-02-14T20:07:43.374Z,4.90
2019-02-14T20:10:14.544Z,4.80
2019-02-14T20:12:44.939Z,4.80
2019-02-14T20:15:20.078Z,4.80
2019-02-14T20:17:49.024Z,4.80
2019-02-14T20:20:18.421Z,4.70
2019-02-14T20:22:48.828Z,4.70
2019-02-14T20:25:29.821Z,4.70
2019-02-14T20:27:59.087Z,4.60
2019-02-14T20:30:29.202Z,4.60
2019-02-14T20:33:04.715Z,4.60
2019-02-14T20:35:28.917Z,4.60
2019-02-14T20:37:58.115Z,4.50
2019-02-14T20:40:28.233Z,4.50
2019-02-14T20:42:58.454Z,4.50
2019-02-14T20:45:27.365Z,4.50
2019-02-14T20:47:57.337Z,4.40
2019-02-14T20:50:26.419Z,4.40
2019-02-14T20:52:56.658Z,4.40
2019-02-14T20:55:26.788Z,4.40
2019-02-14T20:57:55.853Z,4.40
2019-02-14T21:00:27.288Z,4.30
2019-02-14T21:02:56.737Z,4.30
2019-02-14T21:05:26.636Z,4.30
2019-02-14T21:07:55.829Z,4.20
2019-02-14T21:10:24.781Z,4.20
2019-02-14T21:12:53.904Z,4.20
2019-02-14T21:15:22.796Z,4.20
2019-02-14T21:17:51.863Z,4.20
2019-02-14T21:20:21.554Z,4.20
2019-02-14T21:22:51.411Z,4.10
2019-02-14T21:25:22.830Z,4.10
2019-02-14T21:27:51.385Z,4.10
2019-02-14T21:30:21.482Z,4.10
2019-02-14T21:32:50.658Z,4.00
2019-02-14T21:35:19.687Z,4.00
2019-02-14T21:37:49.047Z,4.00
2019-02-14T21:40:21.351Z,4.00
2019-02-14T21:42:50.364Z,3.90
2019-02-14T21:45:19.434Z,3.90
2019-02-14T21:47:48.518Z,3.90
2019-02-14T21:50:17.920Z,3.90
2019-02-14T21:52:47.181Z,3.80
2019-02-14T21:55:17.463Z,3.80
2019-02-14T21:57:47.727Z,3.70
2019-02-14T22:00:25.180Z,3.70
2019-02-14T22:02:54.228Z,3.70
2019-02-14T22:05:25.783Z,3.70
2019-02-14T22:07:54.520Z,3.70
2019-02-14T22:10:23.617Z,3.70
2019-02-14T22:12:52.974Z,3.70
2019-02-14T22:15:27.992Z,3.70
2019-02-14T22:17:57.359Z,3.70
2019-02-14T22:20:26.563Z,3.70
2019-02-14T22:22:56.333Z,3.70
2019-02-14T22:25:25.326Z,3.70
2019-02-14T22:27:54.263Z,3.70
2019-02-14T22:30:23.304Z,3.60
2019-02-14T22:32:52.618Z,3.60
2019-02-14T22:35:21.632Z,3.60
2019-02-14T22:37:51.496Z,3.60
2019-02-14T22:40:20.793Z,3.60
2019-02-14T22:42:49.797Z,3.60
2019-02-14T22:45:18.999Z,3.60
2019-02-14T22:47:48.024Z,3.60
2019-02-14T22:50:17.782Z,3.50
2019-02-14T22:52:47.613Z,3.50
2019-02-14T22:55:17.176Z,3.50
2019-02-14T22:57:46.634Z,3.50
2019-02-14T23:00:32.255Z,3.50
2019-02-14T23:03:01.400Z,3.40
2019-02-14T23:05:31.062Z,3.40
2019-02-14T23:08:00.415Z,3.40
2019-02-14T23:10:30.636Z,3.30
2019-02-14T23:13:00.097Z,3.30
2019-02-14T23:15:29.698Z,3.30
2019-02-14T23:17:58.871Z,3.30
2019-02-14T23:20:29.488Z,3.20
2019-02-14T23:22:59.225Z,3.20
2019-02-14T23:25:29.357Z,3.20
2019-02-14T23:27:59.278Z,3.10
2019-02-14T23:30:28.560Z,3.10
2019-02-14T23:32:58.053Z,3.10
2019-02-14T23:35:27.100Z,3.10
2019-02-14T23:37:56.688Z,3.10
2019-02-14T23:40:26.141Z,3.10
2019-02-14T23:43:04.103Z,3.10
2019-02-14T23:45:27.089Z,3.20
2019-02-14T23:47:56.292Z,3.10
2019-02-14T23:50:25.552Z,3.10
2019-02-14T23:52:55.541Z,3.10
2019-02-14T23:55:24.804Z,3.10
2019-02-14T23:57:54.158Z,3.10
